createdAt,value
2022-11-10T00:01:07.485Z,8.40
2022-11-10T00:03:35.948Z,8.50
2022-11-10T00:06:05.854Z,8.43
2022-11-10T00:08:33.146Z,8.51
2022-11-10T00:11:06.386Z,8.54
2022-11-10T00:13:56.445Z,8.51
2022-11-10T00:16:42.310Z,8.55
2022-11-10T00:19:09.723Z,8.54
2022-11-10T00:21:37.903Z,8.55
2022-11-10T00:24:05.769Z,8.48
2022-11-10T00:26:32.681Z,8.46
2022-11-10T00:28:59.649Z,8.43
2022-11-10T00:31:28.552Z,8.42
2022-11-10T00:33:55.925Z,8.43
2022-11-10T00:36:23.646Z,8.42
2022-11-10T00:38:51.871Z,8.52
2022-11-10T00:41:18.968Z,8.50
2022-11-10T00:43:46.086Z,8.48
2022-11-10T00:46:13.215Z,8.51
2022-11-10T00:48:40.691Z,8.44
2022-11-10T00:51:09.847Z,8.43
2022-11-10T00:53:36.741Z,8.43
2022-11-10T00:56:03.677Z,8.45
2022-11-10T00:58:30.571Z,8.41
2022-11-10T01:01:03.039Z,8.57
2022-11-10T01:03:30.221Z,8.49
2022-11-10T01:05:57.150Z,8.53
2022-11-10T01:08:24.542Z,8.54
2022-11-10T01:10:51.480Z,8.62
2022-11-10T01:13:18.435Z,8.46
2022-11-10T01:15:45.381Z,8.57
2022-11-10T01:18:12.310Z,8.50
2022-11-10T01:20:39.259Z,8.55
2022-11-10T01:23:06.156Z,8.53
2022-11-10T01:25:33.059Z,8.65
2022-11-10T01:27:59.986Z,8.52
2022-11-10T01:30:26.976Z,8.68
2022-11-10T01:32:55.965Z,8.69
2022-11-10T01:35:22.901Z,8.65
2022-11-10T01:37:52.717Z,8.63
2022-11-10T01:40:20.497Z,8.54
2022-11-10T01:42:53.442Z,8.61
2022-11-10T01:45:23.321Z,8.82
2022-11-10T01:47:56.488Z,8.72
2022-11-10T01:50:30.197Z,8.60
2022-11-10T01:53:02.484Z,8.71
2022-11-10T01:55:30.523Z,8.65
2022-11-10T01:57:57.877Z,8.83
2022-11-10T02:00:25.013Z,8.85
2022-11-10T02:03:32.376Z,8.74
2022-11-10T02:06:00.044Z,8.78
2022-11-10T02:08:27.846Z,8.90
2022-11-10T02:10:55.735Z,8.87
2022-11-10T02:13:23.101Z,8.81
2022-11-10T02:15:50.794Z,8.95
2022-11-10T02:18:17.782Z,9.12
2022-11-10T02:20:46.133Z,8.98
2022-11-10T02:23:36.382Z,9.14
2022-11-10T02:26:07.028Z,8.97
2022-11-10T02:28:37.065Z,8.93
2022-11-10T02:31:05.371Z,8.81
2022-11-10T02:33:32.300Z,8.87
2022-11-10T02:35:59.259Z,8.93
2022-11-10T02:38:26.167Z,9.00
2022-11-10T02:40:53.106Z,8.98
2022-11-10T02:43:20.490Z,9.11
2022-11-10T02:45:47.774Z,8.93
2022-11-10T02:48:15.962Z,8.97
2022-11-10T02:50:43.286Z,9.04
2022-11-10T02:53:10.276Z,9.01
2022-11-10T02:55:37.242Z,9.17
2022-11-10T02:58:04.412Z,9.12
2022-11-10T03:00:31.522Z,9.10
2022-11-10T03:03:02.102Z,9.08
2022-11-10T03:05:30.486Z,9.23
2022-11-10T03:08:01.508Z,9.15
2022-11-10T03:10:30.418Z,9.09
2022-11-10T03:12:59.994Z,9.14
2022-11-10T03:15:28.000Z,9.07
2022-11-10T03:17:55.870Z,9.11
2022-11-10T03:20:23.336Z,9.05
2022-11-10T03:22:50.329Z,9.10
2022-11-10T03:25:17.304Z,9.07
2022-11-10T03:27:44.865Z,9.27
2022-11-10T03:30:12.228Z,9.26
2022-11-10T03:32:39.199Z,9.24
2022-11-10T03:35:06.525Z,9.21
2022-11-10T03:37:33.472Z,9.26
2022-11-10T03:40:00.449Z,9.22
2022-11-10T03:42:27.413Z,9.06
2022-11-10T03:44:54.364Z,9.15
2022-11-10T03:47:21.401Z,9.15
2022-11-10T03:49:48.399Z,9.10
2022-11-10T03:52:16.033Z,9.14
2022-11-10T03:54:43.083Z,9.27
2022-11-10T03:57:10.032Z,9.25
2022-11-10T03:59:36.945Z,9.06
2022-11-10T04:02:04.129Z,9.26
2022-11-10T04:04:49.638Z,9.24
2022-11-10T04:07:35.136Z,9.21
2022-11-10T04:10:02.145Z,9.32
2022-11-10T04:12:47.827Z,9.32
2022-11-10T04:15:33.402Z,9.32
2022-11-10T04:18:20.318Z,9.23
2022-11-10T04:20:48.478Z,9.20
2022-11-10T04:23:29.188Z,9.30
2022-11-10T04:26:26.173Z,9.39
2022-11-10T04:28:58.160Z,9.26
2022-11-10T04:31:27.684Z,9.28
2022-11-10T04:33:58.228Z,9.32
2022-11-10T04:36:29.456Z,9.49
2022-11-10T04:38:57.245Z,9.44
2022-11-10T04:41:26.115Z,9.27
2022-11-10T04:43:54.080Z,9.33
2022-11-10T04:46:31.325Z,9.22
2022-11-10T04:48:59.328Z,9.35
2022-11-10T04:51:30.393Z,9.38
2022-11-10T04:53:58.005Z,9.33
2022-11-10T04:56:26.782Z,9.32
2022-11-10T04:58:54.768Z,9.34
2022-11-10T05:01:28.370Z,9.46
2022-11-10T05:03:56.076Z,9.26
2022-11-10T05:06:23.604Z,9.23
2022-11-10T05:08:51.316Z,9.30
2022-11-10T05:11:18.786Z,9.32
2022-11-10T05:13:46.051Z,9.36
2022-11-10T05:16:13.252Z,9.42
2022-11-10T05:18:41.620Z,9.40
2022-11-10T05:21:08.846Z,9.32
2022-11-10T05:23:38.958Z,9.37
2022-11-10T05:26:11.936Z,9.48
2022-11-10T05:28:44.066Z,9.44
2022-11-10T05:31:12.365Z,9.31
2022-11-10T05:33:39.930Z,9.38
2022-11-10T05:36:08.030Z,9.46
2022-11-10T05:38:39.027Z,9.30
2022-11-10T05:41:10.089Z,9.36
2022-11-10T05:43:36.990Z,9.30
2022-11-10T05:46:03.985Z,9.44
2022-11-10T05:48:30.996Z,9.37
2022-11-10T05:50:57.999Z,9.43
2022-11-10T05:53:25.208Z,9.41
2022-11-10T05:55:52.413Z,9.45
2022-11-10T05:58:19.362Z,9.43
2022-11-10T06:00:46.385Z,9.47
2022-11-10T06:03:17.369Z,9.79
2022-11-10T06:05:44.716Z,9.46
2022-11-10T06:08:12.131Z,9.49
2022-11-10T06:10:40.226Z,9.47
2022-11-10T06:13:07.493Z,9.40
2022-11-10T06:15:34.468Z,9.40
2022-11-10T06:18:02.200Z,9.44
2022-11-10T06:20:29.466Z,9.45
2022-11-10T06:23:21.165Z,9.52
2022-11-10T06:25:48.371Z,9.43
2022-11-10T06:28:15.385Z,9.46
2022-11-10T06:30:42.294Z,9.63
2022-11-10T06:33:09.582Z,9.61
2022-11-10T06:35:36.585Z,9.48
2022-11-10T06:38:11.698Z,9.39
2022-11-10T06:40:38.627Z,9.41
2022-11-10T06:43:05.656Z,9.45
2022-11-10T06:45:32.597Z,9.62
2022-11-10T06:48:09.660Z,9.60
2022-11-10T06:50:36.785Z,9.62
2022-11-10T06:53:04.203Z,9.64
2022-11-10T06:55:31.397Z,9.64
2022-11-10T06:57:58.676Z,9.71
2022-11-10T07:00:28.556Z,9.98
2022-11-10T07:03:07.158Z,9.82
2022-11-10T07:05:36.542Z,9.96
2022-11-10T07:08:18.303Z,10.03
2022-11-10T07:10:55.053Z,10.07
2022-11-10T07:13:23.316Z,9.98
2022-11-10T07:15:51.076Z,10.02
2022-11-10T07:18:18.075Z,10.04
2022-11-10T07:20:46.259Z,10.03
2022-11-10T07:23:13.261Z,10.08
2022-11-10T07:25:40.166Z,10.08
2022-11-10T07:28:10.594Z,10.16
2022-11-10T07:30:37.901Z,10.13
2022-11-10T07:33:09.441Z,10.15
2022-11-10T07:35:36.887Z,10.18
2022-11-10T07:38:12.488Z,10.14
2022-11-10T07:40:39.821Z,10.16
2022-11-10T07:43:06.933Z,10.16
2022-11-10T07:45:33.981Z,10.15
2022-11-10T07:48:06.664Z,10.26
2022-11-10T07:50:33.937Z,10.20
2022-11-10T07:53:16.353Z,10.12
2022-11-10T07:55:45.195Z,10.21
2022-11-10T07:58:15.228Z,10.26
2022-11-10T08:00:43.313Z,10.07
2022-11-10T08:03:17.050Z,10.06
2022-11-10T08:05:44.302Z,10.18
2022-11-10T08:08:12.155Z,10.17
2022-11-10T08:10:40.953Z,10.34
2022-11-10T08:13:10.992Z,10.10
2022-11-10T08:15:39.163Z,10.02
2022-11-10T08:18:19.344Z,10.13
2022-11-10T08:20:46.483Z,10.25
2022-11-10T08:23:14.612Z,10.31
2022-11-10T08:25:42.055Z,10.42
2022-11-10T08:28:18.159Z,10.44
2022-11-10T08:30:48.399Z,10.58
2022-11-10T08:33:19.608Z,10.47
2022-11-10T08:35:51.083Z,10.51
2022-11-10T08:38:24.548Z,10.57
2022-11-10T08:40:51.723Z,10.55
2022-11-10T08:43:18.998Z,10.60
2022-11-10T08:45:46.613Z,10.65
2022-11-10T08:48:19.970Z,10.89
2022-11-10T08:50:49.636Z,10.94
2022-11-10T08:53:23.961Z,10.91
2022-11-10T08:55:52.189Z,10.92
2022-11-10T08:58:24.049Z,11.04
2022-11-10T09:00:51.728Z,11.10
2022-11-10T09:03:23.917Z,10.96
2022-11-10T09:05:58.081Z,11.08
2022-11-10T09:08:26.463Z,11.06
2022-11-10T09:10:53.432Z,10.96
2022-11-10T09:13:29.071Z,10.98
2022-11-10T09:16:06.316Z,11.02
2022-11-10T09:18:33.488Z,11.23
2022-11-10T09:21:03.334Z,11.21
2022-11-10T09:23:30.377Z,11.12
2022-11-10T09:25:57.384Z,11.40
2022-11-10T09:28:25.262Z,11.24
2022-11-10T09:30:52.970Z,11.36
2022-11-10T09:33:20.594Z,11.20
2022-11-10T09:35:47.983Z,11.31
2022-11-10T09:38:15.084Z,11.30
2022-11-10T09:40:50.934Z,11.51
2022-11-10T09:43:41.373Z,11.66
2022-11-10T09:46:41.872Z,11.56
2022-11-10T09:49:49.850Z,11.34
2022-11-10T09:52:18.185Z,11.34
2022-11-10T09:55:24.758Z,11.50
2022-11-10T09:57:56.396Z,11.39
2022-11-10T10:00:23.411Z,11.46
2022-11-10T10:03:01.232Z,11.30
2022-11-10T10:06:02.617Z,11.48
2022-11-10T10:08:47.719Z,11.35
2022-11-10T10:11:45.020Z,11.38
2022-11-10T10:14:52.614Z,11.61
2022-11-10T10:17:41.696Z,11.57
2022-11-10T10:20:38.027Z,11.58
2022-11-10T10:24:08.422Z,11.49
2022-11-10T10:26:39.265Z,11.86
2022-11-10T10:29:16.480Z,12.02
2022-11-10T10:31:48.749Z,11.92
2022-11-10T10:34:19.947Z,11.94
2022-11-10T10:36:47.411Z,12.00
2022-11-10T10:39:31.343Z,12.18
2022-11-10T10:41:58.951Z,12.10
2022-11-10T10:44:26.202Z,12.16
2022-11-10T10:46:59.722Z,12.18
2022-11-10T10:49:33.794Z,12.26
2022-11-10T10:52:14.955Z,12.42
2022-11-10T10:54:42.025Z,12.45
2022-11-10T10:57:32.495Z,12.30
2022-11-10T11:00:33.212Z,12.56
2022-11-10T11:03:27.288Z,12.31
2022-11-10T11:06:07.647Z,12.49
2022-11-10T11:08:35.204Z,12.77
2022-11-10T11:11:11.384Z,12.59
2022-11-10T11:13:38.840Z,12.46
2022-11-10T11:16:09.463Z,12.70
2022-11-10T11:18:40.127Z,12.75
2022-11-10T11:21:33.645Z,12.84
2022-11-10T11:25:06.963Z,13.00
2022-11-10T11:27:57.595Z,12.90
2022-11-10T11:30:40.321Z,12.84
2022-11-10T11:33:47.295Z,12.74
2022-11-10T11:37:11.149Z,12.50
2022-11-10T11:40:07.002Z,12.41
2022-11-10T11:43:08.992Z,12.58
2022-11-10T11:46:00.524Z,12.68
2022-11-10T11:48:52.324Z,12.52
2022-11-10T11:51:49.561Z,12.68
2022-11-10T11:54:28.647Z,12.82
2022-11-10T11:57:13.569Z,12.89
2022-11-10T12:00:10.433Z,13.11
2022-11-10T12:03:10.637Z,12.98
2022-11-10T12:06:16.361Z,12.93
2022-11-10T12:09:10.064Z,13.28
2022-11-10T12:12:14.417Z,13.03
2022-11-10T12:15:34.395Z,13.04
2022-11-10T12:18:21.723Z,13.26
2022-11-10T12:20:54.564Z,13.54
2022-11-10T12:23:43.036Z,13.24
2022-11-10T12:26:35.299Z,13.07
2022-11-10T12:29:38.804Z,12.97
2022-11-10T12:32:17.404Z,12.94
2022-11-10T12:34:53.116Z,12.97
2022-11-10T12:37:32.756Z,13.05
2022-11-10T12:40:21.336Z,12.84
2022-11-10T12:43:00.196Z,12.87
2022-11-10T12:45:45.243Z,12.98
2022-11-10T12:48:14.918Z,12.95
2022-11-10T12:51:22.005Z,12.85
2022-11-10T12:53:49.790Z,12.92
2022-11-10T12:56:30.151Z,12.93
2022-11-10T12:59:32.447Z,12.82
2022-11-10T13:02:33.598Z,13.01
2022-11-10T13:05:24.292Z,12.83
2022-11-10T13:08:04.850Z,12.90
2022-11-10T13:10:31.931Z,12.69
2022-11-10T13:13:19.376Z,12.87
2022-11-10T13:15:50.590Z,12.87
2022-11-10T13:18:30.965Z,12.71
2022-11-10T13:20:59.618Z,12.62
2022-11-10T13:23:29.309Z,12.81
2022-11-10T13:26:05.889Z,12.67
2022-11-10T13:28:47.801Z,12.58
2022-11-10T13:31:40.271Z,12.80
2022-11-10T13:34:26.700Z,12.86
2022-11-10T13:36:53.888Z,12.90
2022-11-10T13:39:20.738Z,12.83
2022-11-10T13:41:49.107Z,12.84
2022-11-10T13:44:26.130Z,12.74
2022-11-10T13:47:07.906Z,12.52
2022-11-10T13:49:54.894Z,12.62
2022-11-10T13:52:47.286Z,12.47
2022-11-10T13:55:57.905Z,12.21
2022-11-10T13:58:29.601Z,12.32
2022-11-10T14:01:30.425Z,12.37
2022-11-10T14:04:02.892Z,12.53
2022-11-10T14:06:51.701Z,12.34
2022-11-10T14:09:40.000Z,12.35
2022-11-10T14:12:23.348Z,12.37
2022-11-10T14:15:03.106Z,12.25
2022-11-10T14:17:35.707Z,12.18
2022-11-10T14:20:04.189Z,12.02
2022-11-10T14:22:43.269Z,12.16
2022-11-10T14:25:36.210Z,12.00
2022-11-10T14:28:18.491Z,11.99
2022-11-10T14:30:53.379Z,11.88
2022-11-10T14:33:21.243Z,11.84
2022-11-10T14:35:52.649Z,11.83
2022-11-10T14:38:27.374Z,11.70
2022-11-10T14:40:58.750Z,11.84
2022-11-10T14:43:34.578Z,11.74
2022-11-10T14:46:03.634Z,11.77
2022-11-10T14:48:36.976Z,11.56
2022-11-10T14:51:22.345Z,11.47
2022-11-10T14:53:53.501Z,11.63
2022-11-10T14:56:29.308Z,11.53
2022-11-10T14:58:59.319Z,11.50
2022-11-10T15:01:38.764Z,11.53
2022-11-10T15:04:10.848Z,11.50
2022-11-10T15:06:41.881Z,11.26
2022-11-10T15:09:32.159Z,11.22
2022-11-10T15:12:25.866Z,11.25
2022-11-10T15:15:00.987Z,11.21
2022-11-10T15:17:51.682Z,11.17
2022-11-10T15:20:39.971Z,11.27
2022-11-10T15:23:33.818Z,11.30
2022-11-10T15:26:00.951Z,11.37
2022-11-10T15:28:34.486Z,11.44
2022-11-10T15:31:27.913Z,11.49
2022-11-10T15:34:04.850Z,11.47
2022-11-10T15:36:34.526Z,11.31
2022-11-10T15:39:23.418Z,11.41
2022-11-10T15:41:56.897Z,11.36
2022-11-10T15:44:28.132Z,11.32
2022-11-10T15:46:56.917Z,11.34
2022-11-10T15:49:35.958Z,11.31
2022-11-10T15:52:11.387Z,11.30
2022-11-10T15:54:38.484Z,11.41
2022-11-10T15:57:15.230Z,11.19
2022-11-10T15:59:42.658Z,11.15
2022-11-10T16:02:23.999Z,11.15
2022-11-10T16:04:59.590Z,11.23
2022-11-10T16:07:27.100Z,11.19
2022-11-10T16:09:54.049Z,11.24
2022-11-10T16:12:22.645Z,11.23
2022-11-10T16:14:53.000Z,11.19
2022-11-10T16:17:20.115Z,11.14
2022-11-10T16:19:47.435Z,11.24
2022-11-10T16:22:14.669Z,11.22
2022-11-10T16:24:42.082Z,11.35
2022-11-10T16:27:14.297Z,11.45
2022-11-10T16:29:42.840Z,11.48
2022-11-10T16:32:11.750Z,11.46
2022-11-10T16:34:38.764Z,11.34
2022-11-10T16:37:05.889Z,11.35
2022-11-10T16:39:32.895Z,11.48
2022-11-10T16:41:59.888Z,11.45
2022-11-10T16:44:26.854Z,11.37
2022-11-10T16:46:57.301Z,11.47
2022-11-10T16:49:35.620Z,11.19
2022-11-10T16:52:12.145Z,11.23
2022-11-10T16:54:39.028Z,11.24
2022-11-10T16:57:17.179Z,11.25
2022-11-10T16:59:45.755Z,11.13
2022-11-10T17:02:35.766Z,11.19
2022-11-10T17:05:03.538Z,11.10
2022-11-10T17:07:30.671Z,10.93
2022-11-10T17:09:59.182Z,11.02
2022-11-10T17:12:26.231Z,11.21
2022-11-10T17:14:53.248Z,11.07
2022-11-10T17:17:20.796Z,11.07
2022-11-10T17:19:49.444Z,10.91
2022-11-10T17:22:21.692Z,10.90
2022-11-10T17:24:54.909Z,10.96
2022-11-10T17:27:21.953Z,10.89
2022-11-10T17:29:49.131Z,11.03
2022-11-10T17:32:16.029Z,11.04
2022-11-10T17:34:42.990Z,10.81
2022-11-10T17:37:13.893Z,10.68
2022-11-10T17:39:41.446Z,10.72
2022-11-10T17:42:13.689Z,10.59
2022-11-10T17:44:40.636Z,10.60
2022-11-10T17:47:07.682Z,10.58
2022-11-10T17:49:34.601Z,10.59
2022-11-10T17:52:01.539Z,10.48
2022-11-10T17:54:28.495Z,10.43
2022-11-10T17:56:55.405Z,10.41
2022-11-10T17:59:22.366Z,10.32
2022-11-10T18:01:49.319Z,10.27
2022-11-10T18:04:16.282Z,10.45
2022-11-10T18:06:44.209Z,10.27
2022-11-10T18:09:11.143Z,10.25
2022-11-10T18:11:38.509Z,10.13
2022-11-10T18:14:05.495Z,10.11
2022-11-10T18:16:32.895Z,10.02
2022-11-10T18:18:59.887Z,10.13
2022-11-10T18:21:27.481Z,9.91
2022-11-10T18:23:54.451Z,9.90
2022-11-10T18:26:21.417Z,9.93
2022-11-10T18:28:50.104Z,9.87
2022-11-10T18:31:18.977Z,9.65
2022-11-10T18:33:46.018Z,9.72
2022-11-10T18:36:12.994Z,9.71
2022-11-10T18:38:39.963Z,9.74
2022-11-10T18:41:26.275Z,9.80
2022-11-10T18:43:53.228Z,9.58
2022-11-10T18:46:20.268Z,9.64
2022-11-10T18:48:47.857Z,9.62
2022-11-10T18:51:16.362Z,9.59
2022-11-10T18:53:43.400Z,9.49
2022-11-10T18:56:10.451Z,9.64
2022-11-10T18:58:37.586Z,9.51
2022-11-10T19:01:10.148Z,9.40
2022-11-10T19:03:37.755Z,9.45
2022-11-10T19:06:05.217Z,9.40
2022-11-10T19:08:32.309Z,9.51
2022-11-10T19:10:59.762Z,9.28
2022-11-10T19:13:26.748Z,9.26
2022-11-10T19:15:55.747Z,9.24
2022-11-10T19:18:22.704Z,9.23
2022-11-10T19:20:49.674Z,9.25
2022-11-10T19:23:17.773Z,9.16
2022-11-10T19:25:44.873Z,9.20
2022-11-10T19:28:12.059Z,9.42
2022-11-10T19:30:39.740Z,9.21
2022-11-10T19:33:07.316Z,9.13
2022-11-10T19:35:34.356Z,9.06
2022-11-10T19:38:01.271Z,9.07
2022-11-10T19:40:28.247Z,9.15
2022-11-10T19:42:55.222Z,9.08
2022-11-10T19:45:22.445Z,9.20
2022-11-10T19:47:49.377Z,9.04
2022-11-10T19:50:16.593Z,9.05
2022-11-10T19:52:43.552Z,9.03
2022-11-10T19:55:10.596Z,8.96
2022-11-10T19:57:37.656Z,9.00
2022-11-10T20:00:07.009Z,9.09
2022-11-10T20:02:33.989Z,9.05
2022-11-10T20:05:12.883Z,9.04
2022-11-10T20:07:58.743Z,9.00
2022-11-10T20:10:25.926Z,8.88
2022-11-10T20:12:53.120Z,8.75
2022-11-10T20:15:20.076Z,8.78
2022-11-10T20:17:47.060Z,8.84
2022-11-10T20:20:14.842Z,8.72
2022-11-10T20:22:41.785Z,8.72
2022-11-10T20:25:09.664Z,8.79
2022-11-10T20:27:36.723Z,8.70
2022-11-10T20:30:04.959Z,8.73
2022-11-10T20:32:32.194Z,8.65
2022-11-10T20:35:00.692Z,8.69
2022-11-10T20:37:27.668Z,8.59
2022-11-10T20:39:54.618Z,8.76
2022-11-10T20:42:21.572Z,8.65
2022-11-10T20:44:48.495Z,8.61
2022-11-10T20:47:15.526Z,8.56
2022-11-10T20:49:42.611Z,8.54
2022-11-10T20:52:09.563Z,8.49
2022-11-10T20:54:36.501Z,8.45
2022-11-10T20:57:03.475Z,8.67
2022-11-10T20:59:30.462Z,8.37
2022-11-10T21:01:57.572Z,8.35
2022-11-10T21:04:24.662Z,8.25
2022-11-10T21:06:51.649Z,8.28
2022-11-10T21:09:19.932Z,8.36
2022-11-10T21:12:05.475Z,8.32
2022-11-10T21:14:32.402Z,8.24
2022-11-10T21:16:59.355Z,8.20
2022-11-10T21:19:26.409Z,8.27
2022-11-10T21:21:53.913Z,8.21
2022-11-10T21:24:20.999Z,8.20
2022-11-10T21:26:49.105Z,8.24
2022-11-10T21:29:16.094Z,8.12
2022-11-10T21:31:43.070Z,8.26
2022-11-10T21:34:10.128Z,8.19
2022-11-10T21:36:37.088Z,8.08
2022-11-10T21:39:04.178Z,8.06
2022-11-10T21:41:31.915Z,7.99
2022-11-10T21:43:59.072Z,8.00
2022-11-10T21:46:26.011Z,7.91
2022-11-10T21:48:53.136Z,7.85
2022-11-10T21:51:21.117Z,7.88
2022-11-10T21:53:48.712Z,8.10
2022-11-10T21:56:15.668Z,7.91
2022-11-10T21:58:42.573Z,7.87
2022-11-10T22:01:16.852Z,7.91
2022-11-10T22:03:43.943Z,7.97
2022-11-10T22:06:16.043Z,7.80
2022-11-10T22:08:46.540Z,7.87
2022-11-10T22:11:35.843Z,7.75
2022-11-10T22:14:21.744Z,7.64
2022-11-10T22:17:09.602Z,7.64
2022-11-10T22:19:37.590Z,7.77
2022-11-10T22:22:04.680Z,7.63
2022-11-10T22:24:32.128Z,7.69
2022-11-10T22:27:01.603Z,7.73
2022-11-10T22:29:32.239Z,7.66
2022-11-10T22:32:03.347Z,7.69
2022-11-10T22:34:30.321Z,7.68
2022-11-10T22:36:59.475Z,7.75
2022-11-10T22:39:46.822Z,7.57
2022-11-10T22:42:32.915Z,7.65
2022-11-10T22:44:59.861Z,7.56
2022-11-10T22:47:46.771Z,7.59
2022-11-10T22:50:13.770Z,7.61
2022-11-10T22:52:40.672Z,7.58
2022-11-10T22:55:07.963Z,7.62
2022-11-10T22:57:34.860Z,7.56
2022-11-10T23:00:01.788Z,7.49
2022-11-10T23:02:28.732Z,7.71
2022-11-10T23:04:55.660Z,7.67
2022-11-10T23:07:22.633Z,7.59
2022-11-10T23:09:49.595Z,7.67
2022-11-10T23:12:18.336Z,7.70
2022-11-10T23:14:45.241Z,7.56
2022-11-10T23:17:12.257Z,7.62
2022-11-10T23:19:39.194Z,7.65
2022-11-10T23:22:06.104Z,7.62
2022-11-10T23:24:33.078Z,7.59
2022-11-10T23:27:00.290Z,7.59
2022-11-10T23:29:27.230Z,7.53
2022-11-10T23:31:54.161Z,7.55
2022-11-10T23:34:21.076Z,7.59
2022-11-10T23:36:47.978Z,7.64
2022-11-10T23:39:15.008Z,7.60
2022-11-10T23:41:41.913Z,7.51
2022-11-10T23:44:08.843Z,7.50
2022-11-10T23:46:35.803Z,7.64
2022-11-10T23:49:02.739Z,7.59
2022-11-10T23:51:29.641Z,7.59
2022-11-10T23:53:56.796Z,7.53
2022-11-10T23:56:23.691Z,7.67
2022-11-10T23:58:50.768Z,7.67
